Time;durP1;ratioP1;P1;durP2;ratioP2;P2;SDS_P1;SDS_P2;PMS_P1;PMS_P2;Temp;Humidity;BMP_temperature;BMP_pressure;BME280_temperature;BME280_humidity;BME280_pressure;Samples;Min_cycle;Max_cycle;Signal;HPM_P1;HPM_P2
2022/09/28 00:01:19;;;;;;;0.95;0.47;;;;;;;9.55;86.74;99731.34;5035090;27;97097;-28
2022/09/28 00:03:47;;;;;;;0.85;0.55;;;;;;;9.49;86.71;99726.41;5034829;27;101353;-30
2022/09/28 00:06:15;;;;;;;5.47;0.63;;;;;;;9.49;86.91;99729.13;5035078;27;101071;-29
2022/09/28 00:08:41;;;;;;;2.67;1.20;;;;;;;9.50;86.83;99728.13;5052883;27;96638;-29
2022/09/28 00:11:11;;;;;;;1.67;0.60;;;;;;;9.46;86.45;99724.81;5053355;27;96713;-29
2022/09/28 00:13:36;;;;;;;1.33;0.63;;;;;;;9.43;86.35;99722.31;5052103;27;100031;-29
2022/09/28 00:16:10;;;;;;;0.43;0.40;;;;;;;9.39;86.72;99717.25;5053139;27;97893;-28
2022/09/28 00:18:36;;;;;;;1.08;0.63;;;;;;;9.34;86.77;99721.19;5034752;27;96703;-30
2022/09/28 00:21:15;;;;;;;1.13;0.65;;;;;;;9.32;86.42;99725.84;5052733;27;96918;-28
2022/09/28 00:26:28;;;;;;;0.68;0.50;;;;;;;9.26;86.63;99715.47;5051503;27;97030;-28
2022/09/28 00:28:58;;;;;;;1.20;0.55;;;;;;;9.24;86.60;99706.63;5034892;27;96568;-29
2022/09/28 00:31:25;;;;;;;1.70;1.00;;;;;;;9.24;86.71;99708.47;5052898;27;96699;-29
2022/09/28 00:33:51;;;;;;;0.90;0.70;;;;;;;9.23;86.72;99710.31;5034055;27;101144;-29
2022/09/28 00:36:17;;;;;;;1.10;0.68;;;;;;;9.22;86.68;99713.97;5034210;27;101386;-29
2022/09/28 00:38:43;;;;;;;0.65;0.45;;;;;;;9.19;86.67;99710.66;5033936;27;97512;-32
2022/09/28 00:41:11;;;;;;;0.43;0.30;;;;;;;9.20;86.64;99713.25;5052841;27;96724;-34
2022/09/28 00:43:37;;;;;;;1.40;0.25;;;;;;;9.17;86.51;99709.91;5052390;27;98832;-29
2022/09/28 00:46:14;;;;;;;2.20;0.60;;;;;;;9.16;86.62;99727.09;5052055;27;99076;-29
2022/09/28 00:48:48;;;;;;;0.20;0.20;;;;;;;9.13;86.27;99722.78;5034411;27;96704;-30
2022/09/28 00:51:14;;;;;;;0.75;0.55;;;;;;;9.07;86.49;99726.78;5034194;27;96675;-29
2022/09/28 00:53:43;;;;;;;0.90;0.38;;;;;;;9.02;86.56;99723.56;5052279;27;99245;-29
2022/09/28 00:56:17;;;;;;;0.45;0.30;;;;;;;9.02;86.88;99720.00;5034443;27;101250;-30
2022/09/28 00:58:47;;;;;;;1.75;0.45;;;;;;;8.99;86.84;99725.63;5052283;27;96612;-29
2022/09/28 01:01:12;;;;;;;0.73;0.40;;;;;;;9.01;86.85;99720.94;5052467;27;96515;-29
2022/09/28 01:03:44;;;;;;;0.00;0.00;;;;;;;9.02;86.75;99728.09;5052185;27;97408;-30
2022/09/28 01:06:15;;;;;;;0.65;0.20;;;;;;;9.01;86.81;99720.94;5034111;27;100857;-29
2022/09/28 01:08:43;;;;;;;0.45;0.28;;;;;;;9.00;87.20;99730.91;5034326;27;96438;-28
2022/09/28 01:11:08;;;;;;;0.28;0.20;;;;;;;9.05;86.96;99744.06;5052167;27;96697;-30
2022/09/28 01:13:35;;;;;;;1.92;0.63;;;;;;;9.07;87.03;99742.13;5051817;27;97570;-29
2022/09/28 01:16:12;;;;;;;0.22;0.20;;;;;;;9.12;87.10;99746.19;5052215;27;97893;-29
2022/09/28 01:18:43;;;;;;;0.90;0.50;;;;;;;9.12;87.00;99742.66;5052392;27;96509;-29
2022/09/28 01:21:22;;;;;;;0.50;0.30;;;;;;;9.14;87.20;99740.69;5052013;27;96699;-29
2022/09/28 01:24:09;;;;;;;0.15;0.10;;;;;;;9.17;86.97;99748.56;5033822;27;99014;-29
2022/09/28 01:27:03;;;;;;;0.43;0.25;;;;;;;9.17;87.28;99732.34;5051697;27;99221;-29
2022/09/28 01:29:33;;;;;;;0.93;0.25;;;;;;;9.19;86.96;99738.53;5051872;27;96589;-28
2022/09/28 01:32:10;;;;;;;0.40;0.30;;;;;;;9.18;87.52;99736.81;5033150;27;96849;-29
2022/09/28 01:34:59;;;;;;;0.35;0.17;;;;;;;9.18;87.17;99750.31;5033624;27;101035;-29
2022/09/28 01:37:40;;;;;;;0.38;0.25;;;;;;;9.14;87.04;99735.31;5038245;27;97277;-29
2022/09/28 01:40:08;;;;;;;0.20;0.20;;;;;;;9.13;87.40;99730.88;5033602;27;96595;-29
2022/09/28 01:42:37;;;;;;;0.60;0.32;;;;;;;9.16;87.63;99727.94;5033641;27;96821;-29
2022/09/28 01:45:10;;;;;;;0.32;0.20;;;;;;;9.19;87.31;99733.13;5036382;27;100968;-29
2022/09/28 01:47:38;;;;;;;0.10;0.10;;;;;;;9.20;87.24;99721.34;5055417;27;99155;-30
2022/09/28 01:50:10;;;;;;;1.10;0.10;;;;;;;9.23;87.17;99726.53;5037088;27;96738;-29
2022/09/28 01:52:58;;;;;;;0.38;0.20;;;;;;;9.22;87.08;99718.50;5036984;27;96858;-29
2022/09/28 01:55:31;;;;;;;0.15;0.10;;;;;;;9.25;87.14;99721.00;5036401;27;100866;-30
2022/09/28 01:58:14;;;;;;;0.03;0.03;;;;;;;9.24;86.98;99711.16;5036685;27;101261;-30
2022/09/28 02:00:46;;;;;;;1.35;0.32;;;;;;;9.24;86.84;99711.16;5036945;27;96652;-29
2022/09/28 02:03:17;;;;;;;;;;;;;;;9.22;87.11;99711.25;5037217;27;96762;-29
2022/09/28 02:05:50;;;;;;;0.05;0.03;;;;;;;9.21;86.99;99704.16;5036887;27;99197;-29
2022/09/28 02:08:35;;;;;;;0.00;0.00;;;;;;;9.19;87.43;99707.94;5036619;27;101229;-30
2022/09/28 02:11:09;;;;;;;0.85;0.30;;;;;;;9.17;87.25;99707.19;5036787;27;96558;-28
2022/09/28 02:13:39;;;;;;;0.32;0.30;;;;;;;9.21;87.18;99708.69;5036612;27;96732;-29
2022/09/28 02:16:07;;;;;;;0.00;0.00;;;;;;;9.18;87.07;99704.38;5036478;27;101164;-28
2022/09/28 02:18:33;;;;;;;0.85;0.38;;;;;;;9.17;87.34;99715.28;5054834;27;97930;-28
2022/09/28 02:21:09;;;;;;;0.50;0.40;;;;;;;9.17;87.27;99716.16;5054017;27;96736;-29
2022/09/28 02:23:38;;;;;;;0.30;0.20;;;;;;;9.15;87.22;99712.69;5036480;27;97093;-29
2022/09/28 02:26:09;;;;;;;0.40;0.28;;;;;;;9.19;87.23;99716.91;5036071;27;100970;-28
2022/09/28 02:28:34;;;;;;;0.25;0.25;;;;;;;9.17;86.95;99713.44;5036211;27;101579;-30
2022/09/28 02:31:00;;;;;;;0.20;0.20;;;;;;;9.13;87.20;99707.44;5054830;27;96572;-28
2022/09/28 02:33:38;;;;;;;0.50;0.28;;;;;;;9.18;87.08;99717.03;5054584;27;96801;-30
2022/09/28 02:36:04;;;;;;;0.75;0.40;;;;;;;9.17;87.25;99713.44;5036068;27;101213;-29
2022/09/28 02:38:30;;;;;;;0.45;0.43;;;;;;;9.16;87.37;99713.59;5054835;27;98060;-29
2022/09/28 02:41:10;;;;;;;0.73;0.40;;;;;;;9.15;87.24;99720.81;5036126;27;96624;-29
2022/09/28 02:44:00;;;;;;;1.05;0.52;;;;;;;9.16;87.33;99730.66;5036296;27;96875;-29
2022/09/28 02:46:31;;;;;;;2.35;0.70;;;;;;;9.16;87.27;99730.66;5054451;27;97484;-29
2022/09/28 02:49:35;;;;;;;0.73;0.50;;;;;;;9.12;87.56;99721.88;5035825;27;100646;-29
2022/09/28 02:52:08;;;;;;;1.13;0.43;;;;;;;9.13;87.54;99737.16;5053322;27;96741;-29
2022/09/28 02:54:55;;;;;;;0.98;0.55;;;;;;;9.15;87.56;99734.31;5035463;27;96551;-29
2022/09/28 02:57:45;;;;;;;0.57;0.43;;;;;;;9.13;87.45;99730.88;5053717;27;98915;-29
2022/09/28 03:00:17;;;;;;;0.47;0.40;;;;;;;9.12;87.46;99735.41;5054290;27;97332;-29
2022/09/28 03:02:45;;;;;;;0.50;0.35;;;;;;;9.15;87.39;99739.72;5035957;27;96549;-28
2022/09/28 03:05:27;;;;;;;1.08;0.47;;;;;;;9.09;87.50;99737.47;5054414;27;96784;-29
2022/09/28 03:08:00;;;;;;;0.43;0.35;;;;;;;9.10;87.68;99739.19;5035784;27;101134;-29
2022/09/28 03:10:32;;;;;;;0.82;0.25;;;;;;;9.11;87.52;99739.09;5053852;27;99276;-29
2022/09/28 03:12:57;;;;;;;1.40;0.40;;;;;;;9.07;87.41;99737.59;5053142;27;96644;-29
2022/09/28 03:15:26;;;;;;;3.85;0.32;;;;;;;9.10;87.49;99742.75;5054119;27;97047;-30
2022/09/28 03:17:52;;;;;;;0.45;0.25;;;;;;;9.09;87.51;99740.19;5035430;27;100891;-28
2022/09/28 03:20:18;;;;;;;0.95;0.35;;;;;;;9.13;87.46;99747.09;5053273;27;99768;-30
2022/09/28 03:22:43;;;;;;;1.48;0.63;;;;;;;9.14;87.64;99744.25;5053755;27;96595;-30
2022/09/28 03:25:09;;;;;;;0.30;0.20;;;;;;;9.10;87.62;99736.50;5054063;27;96699;-30
2022/09/28 03:27:34;;;;;;;0.30;0.30;;;;;;;9.12;87.73;99734.53;5053930;27;97817;-29
2022/09/28 03:30:00;;;;;;;0.30;0.15;;;;;;;9.09;87.92;99729.38;5054130;27;97528;-37
2022/09/28 03:32:25;;;;;;;0.45;0.30;;;;;;;9.08;87.84;99720.41;5035473;27;96746;-33
2022/09/28 03:34:51;;;;;;;0.28;0.20;;;;;;;9.09;87.79;99729.38;5053528;27;96791;-31
2022/09/28 03:37:16;;;;;;;1.77;0.60;;;;;;;9.06;87.79;99718.81;5053032;27;100361;-29
2022/09/28 03:39:41;;;;;;;1.30;0.60;;;;;;;9.03;87.69;99719.88;5053653;27;96628;-30
2022/09/28 03:42:07;;;;;;;0.68;0.43;;;;;;;9.03;87.55;99730.66;5053745;27;96638;-30
2022/09/28 03:44:32;;;;;;;0.40;0.38;;;;;;;9.02;87.54;99728.97;5053653;27;97135;-28
2022/09/28 03:46:57;;;;;;;0.82;0.52;;;;;;;8.99;87.52;99725.63;5053237;27;99214;-29
2022/09/28 03:49:23;;;;;;;0.20;0.20;;;;;;;8.95;87.58;99726.81;5053230;27;97802;-28
2022/09/28 03:51:48;;;;;;;3.28;0.55;;;;;;;8.92;87.38;99720.66;5053464;27;96821;-29
2022/09/28 03:54:13;;;;;;;0.43;0.30;;;;;;;8.90;87.55;99728.00;5053940;27;96716;-29
2022/09/28 03:56:40;;;;;;;0.63;0.38;;;;;;;8.87;87.52;99724.69;5053185;27;99136;-29
2022/09/28 03:59:05;;;;;;;0.43;0.32;;;;;;;8.87;87.43;99736.34;5034925;27;101118;-29
2022/09/28 04:01:31;;;;;;;1.25;0.35;;;;;;;8.86;87.43;99737.31;5052941;27;96685;-29
2022/09/28 04:03:56;;;;;;;0.93;0.60;;;;;;;8.87;87.09;99730.94;5053184;27;96732;-28
2022/09/28 04:06:23;;;;;;;0.22;0.20;;;;;;;8.88;87.62;99729.97;5052660;27;97978;-29
2022/09/28 04:08:48;;;;;;;0.90;0.57;;;;;;;8.85;87.84;99722.09;5034607;27;101014;-30
2022/09/28 04:11:13;;;;;;;1.08;0.47;;;;;;;8.85;87.84;99727.50;5053308;27;96614;-28
2022/09/28 04:13:39;;;;;;;0.82;0.47;;;;;;;8.88;87.90;99732.66;5052802;27;96545;-29
2022/09/28 04:16:04;;;;;;;0.57;0.43;;;;;;;8.90;87.56;99736.13;5053033;27;97807;-29
2022/09/28 04:18:31;;;;;;;0.63;0.45;;;;;;;8.96;87.56;99744.75;5053164;27;97724;-29
2022/09/28 04:21:10;;;;;;;0.57;0.40;;;;;;;8.99;87.83;99749.94;5034403;27;96930;-29
2022/09/28 04:23:37;;;;;;;4.80;0.85;;;;;;;8.96;87.50;99742.91;5052999;27;96683;-28
2022/09/28 04:26:05;;;;;;;0.90;0.55;;;;;;;9.00;87.89;99747.09;5033868;27;100891;-29
2022/09/28 04:31:18;;;;;;;1.67;0.60;;;;;;;9.03;88.23;99746.88;5053293;27;96521;-28
2022/09/28 04:33:43;;;;;;;0.60;0.22;;;;;;;9.06;88.21;99745.81;5034214;27;96775;-28
2022/09/28 04:36:09;;;;;;;1.10;0.50;;;;;;;9.07;88.12;99742.13;5052670;27;98938;-29
2022/09/28 04:38:35;;;;;;;2.45;0.43;;;;;;;9.08;88.06;99744.72;5034202;27;100935;-28
2022/09/28 04:41:01;;;;;;;0.57;0.47;;;;;;;9.11;87.86;99749.91;5052902;27;96395;-28
2022/09/28 04:43:27;;;;;;;0.40;0.38;;;;;;;9.07;88.23;99748.38;5052981;27;96819;-28
2022/09/28 04:45:57;;;;;;;0.52;0.20;;;;;;;9.08;88.03;99743.84;5052456;27;99306;-29
2022/09/28 04:48:22;;;;;;;0.55;0.40;;;;;;;9.07;88.17;99739.44;5034220;27;100801;-29
2022/09/28 04:50:53;;;;;;;0.40;0.35;;;;;;;9.11;88.04;99733.69;5051889;27;96495;-30
2022/09/28 04:53:18;;;;;;;1.73;0.70;;;;;;;9.10;88.15;99739.19;5034113;27;96815;-29
2022/09/28 04:55:43;;;;;;;0.32;0.32;;;;;;;9.13;88.24;99744.38;5052546;27;97936;-29
2022/09/28 04:58:09;;;;;;;0.57;0.50;;;;;;;9.14;87.90;99738.00;5052212;27;97786;-29
2022/09/28 05:00:34;;;;;;;1.02;0.57;;;;;;;9.14;87.95;99744.25;5052474;27;96607;-29
2022/09/28 05:03:00;;;;;;;1.17;0.52;;;;;;;9.16;88.14;99749.56;5052110;27;96834;-29
2022/09/28 05:05:25;;;;;;;0.70;0.47;;;;;;;9.16;87.94;99743.31;5052195;27;98796;-29
2022/09/28 05:07:51;;;;;;;0.32;0.20;;;;;;;9.13;88.03;99737.16;5052705;27;97824;-28
2022/09/28 05:10:17;;;;;;;0.57;0.50;;;;;;;9.16;87.97;99746.00;5052608;27;96685;-30
2022/09/28 05:12:42;;;;;;;0.30;0.30;;;;;;;9.13;88.07;99742.53;5051833;27;96783;-29
2022/09/28 05:15:08;;;;;;;1.27;0.55;;;;;;;9.11;87.85;99736.38;5051822;27;97684;-30
2022/09/28 05:17:33;;;;;;;0.35;0.22;;;;;;;9.11;88.14;99730.97;5052191;27;97766;-29
2022/09/28 05:19:59;;;;;;;1.60;0.47;;;;;;;9.12;88.03;99735.41;5055268;27;96598;-28
2022/09/28 05:22:24;;;;;;;0.52;0.30;;;;;;;9.12;88.22;99735.41;5055124;27;96746;-29
2022/09/28 05:24:50;;;;;;;2.63;0.63;;;;;;;9.13;88.22;99747.09;5055803;27;97849;-29
2022/09/28 05:27:15;;;;;;;0.47;0.32;;;;;;;9.11;87.95;99744.50;5055616;27;98430;-29
2022/09/28 05:29:41;;;;;;;0.60;0.38;;;;;;;9.13;87.90;99741.69;5055750;27;96413;-29
2022/09/28 05:32:06;;;;;;;0.60;0.38;;;;;;;9.11;88.16;99749.03;5055911;27;96401;-29
2022/09/28 05:34:32;;;;;;;0.57;0.40;;;;;;;9.13;88.60;99752.50;5055653;27;97795;-28
2022/09/28 05:36:58;;;;;;;0.50;0.40;;;;;;;9.13;88.28;99747.09;5055586;27;97866;-29
2022/09/28 05:39:23;;;;;;;1.05;0.70;;;;;;;9.10;87.95;99742.75;5055242;27;96632;-29
2022/09/28 05:41:48;;;;;;;0.85;0.50;;;;;;;9.11;88.31;99741.78;5055174;27;96975;-28
2022/09/28 05:44:14;;;;;;;0.30;0.28;;;;;;;9.13;88.14;99744.38;5054976;27;104193;-29
2022/09/28 05:46:39;;;;;;;0.43;0.30;;;;;;;9.13;88.10;99741.69;5055413;27;97796;-29
2022/09/28 05:49:04;;;;;;;2.42;0.90;;;;;;;9.16;88.13;99757.66;5037396;27;96551;-29
2022/09/28 05:51:30;;;;;;;1.20;0.75;;;;;;;9.16;88.34;99749.56;5055579;27;96657;-29
2022/09/28 05:53:55;;;;;;;4.72;0.65;;;;;;;9.18;88.31;99766.53;5055428;27;97240;-30
2022/09/28 05:56:21;;;;;;;1.40;0.55;;;;;;;9.20;88.30;99761.88;5037138;27;101086;-29
2022/09/28 05:58:46;;;;;;;0.47;0.30;;;;;;;9.21;88.16;99763.59;5055315;27;96515;-29
2022/09/28 06:01:12;;;;;;;0.95;0.77;;;;;;;9.22;87.79;99759.03;5055244;27;100428;-29
2022/09/28 06:03:37;;;;;;;2.42;0.30;;;;;;;9.23;87.87;99756.25;5054503;27;102327;-29
2022/09/28 06:06:02;;;;;;;0.63;0.30;;;;;;;9.27;88.38;99756.84;5055080;27;100842;-29
2022/09/28 06:08:30;;;;;;;1.50;0.75;;;;;;;9.26;88.27;99749.75;5055568;27;96530;-28
2022/09/28 06:10:59;;;;;;;1.33;0.85;;;;;;;9.28;88.24;99745.94;5054992;27;96693;-30
2022/09/28 06:13:24;;;;;;;1.50;0.47;;;;;;;9.27;88.35;99746.06;5054515;27;97895;-29
2022/09/28 06:15:50;;;;;;;1.13;0.60;;;;;;;9.29;88.19;99744.97;5054872;27;97807;-29
2022/09/28 06:18:15;;;;;;;0.20;0.20;;;;;;;9.31;88.11;99744.84;5054812;27;96471;-28
2022/09/28 06:20:40;;;;;;;1.08;0.63;;;;;;;9.31;88.08;99750.25;5055444;27;96696;-29
2022/09/28 06:23:07;;;;;;;0.57;0.50;;;;;;;9.28;88.21;99745.94;5054537;27;97426;-33
2022/09/28 06:25:32;;;;;;;1.45;0.45;;;;;;;9.30;88.25;99754.81;5036301;27;101046;-34
2022/09/28 06:28:06;;;;;;;0.75;0.40;;;;;;;9.32;88.28;99747.47;5054318;27;96524;-28
2022/09/28 06:30:36;;;;;;;4.32;0.95;;;;;;;9.30;88.57;99749.41;5054352;27;96591;-29
2022/09/28 06:33:02;;;;;;;1.20;0.60;;;;;;;9.32;88.23;99755.56;5036180;27;98868;-31
2022/09/28 06:35:30;;;;;;;0.38;0.35;;;;;;;9.35;88.11;99758.03;5036252;27;101227;-29
2022/09/28 06:37:56;;;;;;;0.88;0.50;;;;;;;9.32;87.74;99752.00;5036241;27;96698;-29
2022/09/28 06:40:22;;;;;;;1.42;0.75;;;;;;;9.35;87.83;99760.72;5054413;27;96802;-28
2022/09/28 06:42:59;;;;;;;0.82;0.43;;;;;;;9.39;88.01;99753.28;5054523;27;97840;-28
2022/09/28 06:45:26;;;;;;;0.75;0.57;;;;;;;9.42;87.86;99763.84;5054762;27;99270;-28
2022/09/28 06:47:53;;;;;;;0.55;0.32;;;;;;;9.45;87.73;99768.16;5036259;27;96558;-29
2022/09/28 06:50:18;;;;;;;2.63;0.65;;;;;;;9.48;87.90;99768.78;5036312;27;96764;-29
2022/09/28 06:52:43;;;;;;;1.77;0.80;;;;;;;9.55;87.73;99772.75;5053615;27;99232;-28
2022/09/28 06:55:09;;;;;;;0.40;0.30;;;;;;;9.62;87.54;99775.88;5053396;27;117632;-29
2022/09/28 06:57:34;;;;;;;0.45;0.43;;;;;;;9.69;87.54;99784.38;5054528;27;96554;-29
2022/09/28 07:00:00;;;;;;;0.57;0.50;;;;;;;9.76;87.31;99791.06;5054271;27;96784;-28
2022/09/28 07:02:25;;;;;;;1.48;0.75;;;;;;;9.79;87.32;99788.13;5054158;27;99227;-28
2022/09/28 07:04:50;;;;;;;0.65;0.43;;;;;;;9.84;87.21;99798.59;5053566;27;106395;-29
2022/09/28 07:07:16;;;;;;;0.82;0.47;;;;;;;9.90;87.24;99798.13;5054423;27;96655;-29
2022/09/28 07:09:41;;;;;;;1.83;0.75;;;;;;;9.91;87.27;99792.59;5054374;27;96743;-28
2022/09/28 07:12:09;;;;;;;1.05;0.75;;;;;;;9.93;87.48;99796.03;5053772;27;97876;-29
2022/09/28 07:14:34;;;;;;;0.98;0.45;;;;;;;9.95;87.34;99798.66;5035550;27;101237;-28
2022/09/28 07:17:01;;;;;;;0.85;0.30;;;;;;;10.10;87.43;99804.72;5053700;27;96585;-29
2022/09/28 07:19:26;;;;;;;0.95;0.30;;;;;;;10.28;86.77;99800.66;5053926;27;96728;-30
2022/09/28 07:21:51;;;;;;;3.13;0.50;;;;;;;10.47;86.71;99799.22;5052747;27;99294;-29
2022/09/28 07:24:17;;;;;;;2.58;0.45;;;;;;;10.56;85.93;99791.25;5053511;27;99297;-29
2022/09/28 07:26:44;;;;;;;1.23;0.70;;;;;;;10.60;86.10;99792.69;5054037;27;96471;-28
2022/09/28 07:29:10;;;;;;;1.17;0.80;;;;;;;10.60;86.16;99798.13;5035481;27;96930;-28
2022/09/28 07:31:36;;;;;;;1.25;0.73;;;;;;;10.58;86.51;99788.38;5053617;27;99295;-28
2022/09/28 07:34:01;;;;;;;0.80;0.47;;;;;;;10.58;86.47;99796.50;5053519;27;99075;-29
2022/09/28 07:36:27;;;;;;;1.58;0.65;;;;;;;10.56;86.47;99801.22;5053582;27;96669;-29
2022/09/28 07:38:53;;;;;;;0.82;0.70;;;;;;;10.53;86.48;99794.16;5053439;27;96795;-28
2022/09/28 07:41:30;;;;;;;1.45;0.68;;;;;;;10.52;86.84;99794.31;5052202;27;103167;-29
2022/09/28 07:43:57;;;;;;;0.65;0.32;;;;;;;10.51;86.88;99803.41;5035141;27;101081;-30
2022/09/28 07:46:23;;;;;;;1.52;0.77;;;;;;;10.48;86.76;99806.34;5035319;27;96579;-28
2022/09/28 07:48:50;;;;;;;1.85;0.57;;;;;;;10.50;87.00;99804.38;5053759;27;96749;-30
2022/09/28 07:51:18;;;;;;;0.70;0.50;;;;;;;10.50;86.90;99807.94;5018348;27;100790;-29
2022/09/28 07:53:44;;;;;;;1.65;0.73;;;;;;;10.51;86.96;99800.69;5053381;27;97808;-28
2022/09/28 07:56:10;;;;;;;0.25;0.22;;;;;;;10.61;87.14;99807.13;5035106;27;96509;-30
2022/09/28 07:58:38;;;;;;;1.15;0.80;;;;;;;10.70;87.14;99811.81;5035312;27;96686;-29
2022/09/28 08:01:09;;;;;;;1.17;0.70;;;;;;;10.86;86.91;99813.31;5034843;27;100613;-31
2022/09/28 08:03:35;;;;;;;2.15;0.80;;;;;;;10.99;86.75;99814.91;5034471;27;100769;-29
2022/09/28 08:06:05;;;;;;;1.35;0.57;;;;;;;11.07;86.11;99821.56;5052797;27;96580;-29
2022/09/28 08:08:33;;;;;;;1.20;0.63;;;;;;;11.11;86.25;99820.31;5034785;27;97354;-30
2022/09/28 08:10:58;;;;;;;1.08;0.70;;;;;;;11.16;85.80;99821.69;5053129;27;97990;-28
2022/09/28 08:13:24;;;;;;;0.82;0.50;;;;;;;11.16;86.11;99818.97;5053031;27;97307;-29
2022/09/28 08:15:51;;;;;;;1.70;0.40;;;;;;;11.19;86.13;99807.88;5034669;27;96577;-27
2022/09/28 08:18:17;;;;;;;1.67;0.40;;;;;;;11.19;85.83;99824.16;5034767;27;96821;-29
2022/09/28 08:23:27;;;;;;;1.90;0.73;;;;;;;11.04;85.90;99831.66;5053453;27;96941;-30
2022/09/28 08:25:55;;;;;;;0.25;0.20;;;;;;;11.03;86.16;99827.22;5052833;27;96454;-30
2022/09/28 08:28:22;;;;;;;0.93;0.43;;;;;;;11.02;86.11;99833.63;5034473;27;96780;-28
2022/09/28 08:30:48;;;;;;;1.17;0.40;;;;;;;10.99;86.11;99830.31;5033958;27;101219;-29
2022/09/28 08:33:22;;;;;;;0.50;0.35;;;;;;;11.04;86.28;99834.38;5034017;27;100001;-29
2022/09/28 08:35:56;;;;;;;1.27;0.50;;;;;;;11.08;86.93;99834.13;5052782;27;96576;-29
2022/09/28 08:38:22;;;;;;;0.68;0.35;;;;;;;11.20;87.39;99844.88;5034621;27;96697;-28
2022/09/28 08:40:57;;;;;;;0.73;0.40;;;;;;;11.28;86.94;99846.94;5052671;27;97767;-29
2022/09/28 08:43:52;;;;;;;0.32;0.30;;;;;;;11.40;86.94;99845.94;5034231;27;101265;-29
2022/09/28 08:46:20;;;;;;;0.10;0.10;;;;;;;11.46;86.48;99842.75;5040799;27;96527;-28
2022/09/28 08:48:55;;;;;;;0.40;0.20;;;;;;;11.52;85.72;99835.09;5034667;27;96875;-29
2022/09/28 08:51:41;;;;;;;0.20;0.13;;;;;;;11.57;85.48;99846.44;5052266;27;98780;-29
2022/09/28 08:54:32;;;;;;;0.17;0.17;;;;;;;11.59;85.66;99844.47;5033897;27;100972;-32
2022/09/28 08:57:18;;;;;;;0.38;0.30;;;;;;;11.58;85.42;99840.00;5033841;27;97527;-29
2022/09/28 08:59:55;;;;;;;0.38;0.25;;;;;;;11.57;85.19;99835.59;5034056;27;96895;-28
2022/09/28 09:02:24;;;;;;;2.75;0.70;;;;;;;11.59;84.98;99844.47;5052141;27;99121;-30
2022/09/28 09:04:51;;;;;;;1.23;0.88;;;;;;;11.62;84.87;99845.06;5052084;27;98955;-28
2022/09/28 09:08:04;;;;;;;0.38;0.38;;;;;;;11.68;85.02;99852.69;5033957;27;96691;-28
2022/09/28 09:10:48;;;;;;;2.45;0.82;;;;;;;11.76;85.55;99862.91;4950016;28;96883;-29
2022/09/28 09:13:39;;;;;;;1.27;0.95;;;;;;;11.82;85.41;99861.53;4933670;28;100968;-30
2022/09/28 09:16:16;;;;;;;1.47;0.83;;;;;;;11.88;85.27;99866.50;5009402;27;99370;-30
2022/09/28 09:18:51;;;;;;;1.67;1.00;;;;;;;11.96;85.41;99871.28;5052220;27;96729;-29
2022/09/28 09:21:56;;;;;;;1.17;0.50;;;;;;;11.96;84.50;99865.84;5031977;27;96814;-31
2022/09/28 09:24:23;;;;;;;1.48;0.60;;;;;;;12.05;84.18;99875.94;5051620;27;97907;-33
2022/09/28 09:27:09;;;;;;;1.42;0.85;;;;;;;12.03;85.45;99870.63;5033333;27;101147;-29
2022/09/28 09:29:50;;;;;;;0.50;0.30;;;;;;;12.06;84.59;99870.41;5046353;27;96577;-29
2022/09/28 09:32:37;;;;;;;0.40;0.30;;;;;;;12.23;84.71;99877.13;5013413;28;96955;-29
2022/09/28 09:35:29;;;;;;;1.23;0.47;;;;;;;12.42;83.67;99875.53;5013383;28;100893;-30
2022/09/28 09:38:14;;;;;;;;;;;;;;;12.62;82.92;99872.00;5031890;28;98812;-28
2022/09/28 09:40:58;;;;;;;3.25;0.20;;;;;;;12.88;82.34;99868.91;5038817;27;96745;-28
2022/09/28 09:43:42;;;;;;;1.67;0.75;;;;;;;13.21;81.58;99870.50;5031585;27;96968;-29
2022/09/28 09:46:22;;;;;;;2.00;0.43;;;;;;;13.51;80.16;99871.50;5031708;28;97437;-29
2022/09/28 09:48:59;;;;;;;0.95;0.45;;;;;;;13.88;79.52;99873.66;5013313;28;101350;-28
2022/09/28 09:51:46;;;;;;;0.85;0.73;;;;;;;14.28;78.64;99870.84;5049974;27;98682;-28
2022/09/28 09:54:22;;;;;;;2.95;0.80;;;;;;;14.53;77.07;99880.28;5047246;27;98796;-28
2022/09/28 09:56:54;;;;;;;0.65;0.52;;;;;;;14.85;75.92;99876.44;5051811;27;97361;-28
2022/09/28 09:59:25;;;;;;;;;;;;;;;15.20;76.11;99873.03;5033785;27;101327;-28
2022/09/28 10:01:51;;;;;;;2.58;0.70;;;;;;;15.38;74.57;99875.00;5051831;27;96481;-28
2022/09/28 10:04:22;;;;;;;0.98;0.60;;;;;;;15.46;74.38;99870.50;5033219;27;96585;-27
2022/09/28 10:06:50;;;;;;;1.48;1.10;;;;;;;15.75;73.61;99872.25;5020191;27;101297;-33
2022/09/28 10:09:25;;;;;;;1.35;0.65;;;;;;;15.96;72.99;99873.88;5055058;27;98723;-28
2022/09/28 10:11:51;;;;;;;0.65;0.52;;;;;;;16.17;73.03;99874.44;5036597;27;96536;-29
2022/09/28 10:14:21;;;;;;;1.33;1.00;;;;;;;16.28;72.06;99876.97;5054979;27;96760;-28
2022/09/28 10:16:49;;;;;;;4.10;1.02;;;;;;;16.48;72.55;99874.06;5054520;27;97826;-30
2022/09/28 10:19:18;;;;;;;2.08;0.80;;;;;;;16.40;69.83;99865.78;5036457;27;101154;-28
2022/09/28 10:21:46;;;;;;;1.70;1.00;;;;;;;16.51;72.38;99874.59;5035812;27;96906;-28
2022/09/28 10:24:22;;;;;;;6.05;1.20;;;;;;;16.77;70.93;99868.34;5036567;27;96844;-29
2022/09/28 10:26:52;;;;;;;1.95;0.90;;;;;;;16.87;70.67;99858.19;5036250;27;100792;-28
2022/09/28 10:29:24;;;;;;;2.28;1.00;;;;;;;17.17;70.02;99864.22;5035989;27;100746;-28
2022/09/28 10:31:52;;;;;;;1.55;0.63;;;;;;;16.89;67.34;99858.88;5036407;27;96540;-28
2022/09/28 10:34:24;;;;;;;1.60;0.52;;;;;;;17.05;69.19;99865.50;5034671;27;96729;-29
2022/09/28 10:36:58;;;;;;;1.50;0.70;;;;;;;17.15;69.21;99864.38;5035634;27;100524;-28
2022/09/28 10:39:27;;;;;;;4.03;0.63;;;;;;;17.14;68.56;99868.13;5053992;27;98415;-32
2022/09/28 10:41:53;;;;;;;1.35;0.60;;;;;;;17.30;69.31;99870.09;5053431;27;96655;-29
2022/09/28 10:44:20;;;;;;;6.18;0.80;;;;;;;17.05;68.70;99870.97;5035681;27;96860;-30
2022/09/28 10:46:55;;;;;;;0.75;0.40;;;;;;;16.69;70.31;99868.28;5035744;27;100875;-28
2022/09/28 10:49:22;;;;;;;1.35;0.55;;;;;;;16.37;70.02;99866.09;5035892;27;101693;-28
2022/09/28 10:51:53;;;;;;;3.50;0.65;;;;;;;16.04;71.43;99872.09;5036079;27;96662;-28
2022/09/28 10:54:20;;;;;;;0.52;0.50;;;;;;;15.89;72.63;99868.16;5054024;27;96817;-29
2022/09/28 10:56:47;;;;;;;2.22;0.68;;;;;;;15.97;70.28;99865.53;5054543;27;97544;-29
2022/09/28 10:59:27;;;;;;;0.38;0.38;;;;;;;15.87;71.74;99867.44;5036209;27;100764;-30
2022/09/28 11:02:00;;;;;;;0.30;0.28;;;;;;;15.69;73.22;99873.69;5054494;27;96522;-28
2022/09/28 11:04:28;;;;;;;0.60;0.32;;;;;;;15.46;73.62;99867.75;5035901;27;96733;-28
2022/09/28 11:06:58;;;;;;;1.20;0.50;;;;;;;15.31;74.24;99869.28;5053141;27;98979;-28
2022/09/28 11:09:35;;;;;;;0.55;0.38;;;;;;;15.23;74.44;99880.06;5035546;27;101893;-28
2022/09/28 11:12:05;;;;;;;0.80;0.50;;;;;;;15.20;74.67;99869.44;5035915;27;96566;-28
2022/09/28 11:14:39;;;;;;;1.25;0.40;;;;;;;15.10;74.60;99871.34;5053914;27;96936;-30
2022/09/28 11:17:29;;;;;;;0.50;0.30;;;;;;;14.88;75.26;99872.56;5034264;27;101434;-28
2022/09/28 11:19:57;;;;;;;0.52;0.40;;;;;;;14.70;75.56;99876.00;5053948;27;96942;-28
2022/09/28 11:22:35;;;;;;;0.70;0.52;;;;;;;14.57;75.65;99870.00;5035228;27;96873;-28
2022/09/28 11:25:15;;;;;;;0.70;0.52;;;;;;;14.55;75.44;99874.75;5036024;27;96792;-28
2022/09/28 11:27:53;;;;;;;2.55;0.55;;;;;;;14.49;76.18;99873.44;5053675;27;97504;-29
2022/09/28 11:30:32;;;;;;;0.43;0.40;;;;;;;14.36;75.93;99868.25;5035364;27;100871;-28
2022/09/28 11:33:10;;;;;;;0.93;0.50;;;;;;;14.19;76.60;99866.25;5034742;27;96912;-28
2022/09/28 11:35:47;;;;;;;1.02;0.50;;;;;;;14.19;76.88;99863.53;5035313;27;97418;-29
2022/09/28 11:38:32;;;;;;;0.65;0.43;;;;;;;14.69;75.95;99868.84;5035122;27;101014;-28
2022/09/28 11:41:08;;;;;;;1.38;0.82;;;;;;;15.29;74.21;99857.66;5035262;27;100765;-29
2022/09/28 11:44:08;;;;;;;0.95;0.60;;;;;;;15.85;72.55;99855.81;5035110;27;96558;-28
2022/09/28 11:46:42;;;;;;;0.90;0.50;;;;;;;15.99;70.37;99857.16;5053627;27;96773;-29
2022/09/28 11:49:37;;;;;;;1.02;0.57;;;;;;;15.86;70.98;99857.56;5053619;27;97972;-28
2022/09/28 11:52:09;;;;;;;2.03;0.70;;;;;;;15.76;70.91;99860.34;5053547;27;99008;-29
2022/09/28 11:55:00;;;;;;;1.75;0.70;;;;;;;15.94;71.27;99865.81;5035133;27;96688;-28
2022/09/28 11:57:36;;;;;;;0.70;0.40;;;;;;;16.27;68.96;99857.97;5023123;27;97097;-28
2022/09/28 12:00:12;;;;;;;2.78;0.60;;;;;;;16.43;68.21;99857.28;5053022;27;98035;-29
2022/09/28 12:02:51;;;;;;;1.75;0.50;;;;;;;16.04;69.75;99863.03;5034735;27;100743;-29